sensor_id;sensor_type;location;lat;lon;timestamp;P1;durP1;ratioP1;P2;durP2;ratioP2
52918;SDS011;38793;52.690;6.812;2023-03-21T00:01:54;86.03;;;47.97;;
52918;SDS011;38793;52.690;6.812;2023-03-21T00:04:23;88.88;;;48.42;;
52918;SDS011;38793;52.690;6.812;2023-03-21T00:06:50;93.53;;;50.38;;
52918;SDS011;38793;52.690;6.812;2023-03-21T00:09:16;90.82;;;48.03;;
52918;SDS011;38793;52.690;6.812;2023-03-21T00:11:42;95.43;;;49.80;;
52918;SDS011;38793;52.690;6.812;2023-03-21T00:14:07;95.90;;;51.83;;
52918;SDS011;38793;52.690;6.812;2023-03-21T00:16:38;89.75;;;49.53;;
52918;SDS011;38793;52.690;6.812;2023-03-21T00:19:04;99.53;;;49.05;;
52918;SDS011;38793;52.690;6.812;2023-03-21T00:23:57;91.25;;;50.78;;
52918;SDS011;38793;52.690;6.812;2023-03-21T00:26:24;95.30;;;49.40;;
52918;SDS011;38793;52.690;6.812;2023-03-21T00:28:50;100.75;;;54.50;;
52918;SDS011;38793;52.690;6.812;2023-03-21T00:31:16;103.88;;;53.40;;
52918;SDS011;38793;52.690;6.812;2023-03-21T00:33:42;99.32;;;50.72;;
52918;SDS011;38793;52.690;6.812;2023-03-21T00:36:13;114.32;;;56.92;;
52918;SDS011;38793;52.690;6.812;2023-03-21T00:38:39;103.65;;;54.22;;
52918;SDS011;38793;52.690;6.812;2023-03-21T00:41:06;110.75;;;56.97;;
52918;SDS011;38793;52.690;6.812;2023-03-21T00:43:34;109.00;;;55.92;;
52918;SDS011;38793;52.690;6.812;2023-03-21T00:46:00;121.15;;;59.50;;
52918;SDS011;38793;52.690;6.812;2023-03-21T00:48:28;112.03;;;57.20;;
52918;SDS011;38793;52.690;6.812;2023-03-21T00:50:54;118.68;;;59.10;;
52918;SDS011;38793;52.690;6.812;2023-03-21T00:53:21;102.13;;;57.45;;
52918;SDS011;38793;52.690;6.812;2023-03-21T00:55:47;97.85;;;54.75;;
52918;SDS011;38793;52.690;6.812;2023-03-21T01:00:39;96.22;;;51.28;;
52918;SDS011;38793;52.690;6.812;2023-03-21T01:03:06;115.10;;;56.60;;
52918;SDS011;38793;52.690;6.812;2023-03-21T01:05:45;100.22;;;52.38;;
52918;SDS011;38793;52.690;6.812;2023-03-21T01:08:32;100.82;;;56.03;;
52918;SDS011;38793;52.690;6.812;2023-03-21T01:11:07;107.03;;;55.05;;
52918;SDS011;38793;52.690;6.812;2023-03-21T01:13:34;85.15;;;51.53;;
52918;SDS011;38793;52.690;6.812;2023-03-21T01:16:00;85.87;;;50.87;;
52918;SDS011;38793;52.690;6.812;2023-03-21T01:18:27;89.03;;;51.47;;
52918;SDS011;38793;52.690;6.812;2023-03-21T01:20:54;83.13;;;48.00;;
52918;SDS011;38793;52.690;6.812;2023-03-21T01:23:22;87.50;;;49.85;;
52918;SDS011;38793;52.690;6.812;2023-03-21T01:25:49;77.32;;;48.33;;
52918;SDS011;38793;52.690;6.812;2023-03-21T01:28:16;75.55;;;45.20;;
52918;SDS011;38793;52.690;6.812;2023-03-21T01:30:45;70.00;;;42.17;;
52918;SDS011;38793;52.690;6.812;2023-03-21T01:33:12;72.43;;;44.05;;
52918;SDS011;38793;52.690;6.812;2023-03-21T01:35:38;68.30;;;43.92;;
52918;SDS011;38793;52.690;6.812;2023-03-21T01:38:04;73.90;;;42.83;;
52918;SDS011;38793;52.690;6.812;2023-03-21T01:40:30;66.50;;;42.60;;
52918;SDS011;38793;52.690;6.812;2023-03-21T01:42:56;59.60;;;38.92;;
52918;SDS011;38793;52.690;6.812;2023-03-21T01:48:31;64.28;;;38.95;;
52918;SDS011;38793;52.690;6.812;2023-03-21T01:53:25;64.35;;;39.85;;
52918;SDS011;38793;52.690;6.812;2023-03-21T01:55:55;52.15;;;37.17;;
52918;SDS011;38793;52.690;6.812;2023-03-21T01:58:23;56.90;;;38.30;;
52918;SDS011;38793;52.690;6.812;2023-03-21T02:00:50;54.90;;;36.30;;
52918;SDS011;38793;52.690;6.812;2023-03-21T02:03:16;52.22;;;36.78;;
52918;SDS011;38793;52.690;6.812;2023-03-21T02:05:55;47.80;;;33.08;;
52918;SDS011;38793;52.690;6.812;2023-03-21T02:08:24;50.67;;;33.70;;
52918;SDS011;38793;52.690;6.812;2023-03-21T02:10:51;49.53;;;34.50;;
52918;SDS011;38793;52.690;6.812;2023-03-21T02:13:17;41.85;;;30.33;;
52918;SDS011;38793;52.690;6.812;2023-03-21T02:15:52;44.58;;;29.50;;
52918;SDS011;38793;52.690;6.812;2023-03-21T02:38:07;39.17;;;26.25;;
52918;SDS011;38793;52.690;6.812;2023-03-21T02:40:52;42.13;;;29.05;;
52918;SDS011;38793;52.690;6.812;2023-03-21T02:43:41;41.33;;;29.00;;
52918;SDS011;38793;52.690;6.812;2023-03-21T02:48:46;44.15;;;30.30;;
52918;SDS011;38793;52.690;6.812;2023-03-21T02:51:19;48.17;;;29.50;;
52918;SDS011;38793;52.690;6.812;2023-03-21T02:53:49;47.50;;;29.77;;
52918;SDS011;38793;52.690;6.812;2023-03-21T02:56:19;47.35;;;29.75;;
52918;SDS011;38793;52.690;6.812;2023-03-21T02:58:47;50.75;;;32.70;;
52918;SDS011;38793;52.690;6.812;2023-03-21T03:01:13;51.00;;;32.47;;
52918;SDS011;38793;52.690;6.812;2023-03-21T03:03:39;54.88;;;34.83;;
52918;SDS011;38793;52.690;6.812;2023-03-21T03:06:15;52.47;;;34.47;;
52918;SDS011;38793;52.690;6.812;2023-03-21T03:08:52;53.38;;;34.92;;
52918;SDS011;38793;52.690;6.812;2023-03-21T03:11:30;58.40;;;36.05;;
52918;SDS011;38793;52.690;6.812;2023-03-21T03:14:22;55.95;;;36.80;;
52918;SDS011;38793;52.690;6.812;2023-03-21T03:17:31;59.42;;;35.60;;
52918;SDS011;38793;52.690;6.812;2023-03-21T03:20:11;56.67;;;37.17;;
52918;SDS011;38793;52.690;6.812;2023-03-21T03:25:50;60.30;;;37.03;;
52918;SDS011;38793;52.690;6.812;2023-03-21T03:28:24;63.25;;;38.10;;
52918;SDS011;38793;52.690;6.812;2023-03-21T03:30:55;60.25;;;37.67;;
52918;SDS011;38793;52.690;6.812;2023-03-21T03:33:23;65.40;;;37.65;;
52918;SDS011;38793;52.690;6.812;2023-03-21T03:35:51;59.22;;;38.10;;
52918;SDS011;38793;52.690;6.812;2023-03-21T03:38:20;56.13;;;36.42;;
52918;SDS011;38793;52.690;6.812;2023-03-21T03:40:54;54.67;;;34.70;;
52918;SDS011;38793;52.690;6.812;2023-03-21T03:43:27;58.15;;;36.05;;
52918;SDS011;38793;52.690;6.812;2023-03-21T03:46:18;61.35;;;35.88;;
52918;SDS011;38793;52.690;6.812;2023-03-21T03:49:06;61.20;;;39.60;;
52918;SDS011;38793;52.690;6.812;2023-03-21T03:51:53;62.83;;;39.22;;
52918;SDS011;38793;52.690;6.812;2023-03-21T03:54:41;64.55;;;40.25;;
52918;SDS011;38793;52.690;6.812;2023-03-21T03:57:09;67.97;;;39.78;;
52918;SDS011;38793;52.690;6.812;2023-03-21T03:59:38;67.55;;;40.05;;
52918;SDS011;38793;52.690;6.812;2023-03-21T04:02:06;75.63;;;41.92;;
52918;SDS011;38793;52.690;6.812;2023-03-21T04:04:32;72.03;;;42.55;;
52918;SDS011;38793;52.690;6.812;2023-03-21T04:06:58;71.53;;;41.40;;
52918;SDS011;38793;52.690;6.812;2023-03-21T04:09:24;68.82;;;39.28;;
52918;SDS011;38793;52.690;6.812;2023-03-21T04:11:52;63.78;;;39.22;;
52918;SDS011;38793;52.690;6.812;2023-03-21T04:14:18;75.07;;;42.28;;
52918;SDS011;38793;52.690;6.812;2023-03-21T04:16:44;67.15;;;39.95;;
52918;SDS011;38793;52.690;6.812;2023-03-21T04:19:10;65.75;;;41.53;;
52918;SDS011;38793;52.690;6.812;2023-03-21T04:21:36;64.45;;;38.60;;
52918;SDS011;38793;52.690;6.812;2023-03-21T04:24:02;64.20;;;39.97;;
52918;SDS011;38793;52.690;6.812;2023-03-21T04:26:28;61.15;;;37.80;;
52918;SDS011;38793;52.690;6.812;2023-03-21T04:28:57;62.08;;;37.40;;
52918;SDS011;38793;52.690;6.812;2023-03-21T04:31:27;62.22;;;37.97;;
52918;SDS011;38793;52.690;6.812;2023-03-21T04:33:58;61.35;;;38.35;;
52918;SDS011;38793;52.690;6.812;2023-03-21T04:36:26;58.33;;;36.67;;
52918;SDS011;38793;52.690;6.812;2023-03-21T04:38:55;68.90;;;39.92;;
52918;SDS011;38793;52.690;6.812;2023-03-21T04:41:27;67.90;;;37.05;;
52918;SDS011;38793;52.690;6.812;2023-03-21T04:43:54;68.00;;;39.78;;
52918;SDS011;38793;52.690;6.812;2023-03-21T04:46:20;65.05;;;38.75;;
52918;SDS011;38793;52.690;6.812;2023-03-21T04:48:46;70.75;;;39.97;;
52918;SDS011;38793;52.690;6.812;2023-03-21T04:51:12;71.18;;;39.67;;
52918;SDS011;38793;52.690;6.812;2023-03-21T04:53:38;68.00;;;38.30;;
52918;SDS011;38793;52.690;6.812;2023-03-21T04:56:06;63.85;;;38.70;;
52918;SDS011;38793;52.690;6.812;2023-03-21T04:58:32;61.75;;;38.17;;
52918;SDS011;38793;52.690;6.812;2023-03-21T05:00:58;72.37;;;42.37;;
52918;SDS011;38793;52.690;6.812;2023-03-21T05:03:26;65.07;;;37.17;;
52918;SDS011;38793;52.690;6.812;2023-03-21T05:05:58;65.38;;;38.67;;
52918;SDS011;38793;52.690;6.812;2023-03-21T05:08:24;66.15;;;39.22;;
52918;SDS011;38793;52.690;6.812;2023-03-21T05:10:50;62.58;;;37.10;;
52918;SDS011;38793;52.690;6.812;2023-03-21T05:13:16;61.88;;;36.42;;
52918;SDS011;38793;52.690;6.812;2023-03-21T05:15:42;67.13;;;39.97;;
52918;SDS011;38793;52.690;6.812;2023-03-21T05:18:07;60.73;;;36.50;;
52918;SDS011;38793;52.690;6.812;2023-03-21T05:20:39;68.63;;;37.00;;
52918;SDS011;38793;52.690;6.812;2023-03-21T05:23:07;67.22;;;39.22;;
52918;SDS011;38793;52.690;6.812;2023-03-21T05:25:37;61.83;;;37.40;;
52918;SDS011;38793;52.690;6.812;2023-03-21T05:28:04;62.92;;;37.83;;
52918;SDS011;38793;52.690;6.812;2023-03-21T05:30:30;67.22;;;37.88;;
52918;SDS011;38793;52.690;6.812;2023-03-21T05:32:56;63.40;;;36.25;;
52918;SDS011;38793;52.690;6.812;2023-03-21T05:35:22;61.97;;;34.75;;
52918;SDS011;38793;52.690;6.812;2023-03-21T05:37:48;64.73;;;37.67;;
52918;SDS011;38793;52.690;6.812;2023-03-21T05:40:13;59.20;;;34.80;;
52918;SDS011;38793;52.690;6.812;2023-03-21T05:42:39;57.35;;;35.83;;
52918;SDS011;38793;52.690;6.812;2023-03-21T05:45:05;58.45;;;34.83;;
52918;SDS011;38793;52.690;6.812;2023-03-21T05:47:31;58.90;;;34.72;;
52918;SDS011;38793;52.690;6.812;2023-03-21T05:49:57;57.33;;;34.80;;
52918;SDS011;38793;52.690;6.812;2023-03-21T05:52:22;56.20;;;33.27;;
52918;SDS011;38793;52.690;6.812;2023-03-21T05:54:48;55.73;;;32.00;;
52918;SDS011;38793;52.690;6.812;2023-03-21T05:57:14;64.37;;;36.30;;
52918;SDS011;38793;52.690;6.812;2023-03-21T05:59:39;60.38;;;33.95;;
52918;SDS011;38793;52.690;6.812;2023-03-21T06:02:05;59.73;;;33.47;;
52918;SDS011;38793;52.690;6.812;2023-03-21T06:04:31;61.17;;;35.67;;
52918;SDS011;38793;52.690;6.812;2023-03-21T06:06:56;62.53;;;37.23;;
52918;SDS011;38793;52.690;6.812;2023-03-21T06:09:22;62.75;;;36.33;;
52918;SDS011;38793;52.690;6.812;2023-03-21T06:11:49;64.43;;;37.47;;
52918;SDS011;38793;52.690;6.812;2023-03-21T06:14:17;64.18;;;36.92;;
52918;SDS011;38793;52.690;6.812;2023-03-21T06:16:43;69.25;;;37.88;;
52918;SDS011;38793;52.690;6.812;2023-03-21T06:19:09;63.38;;;35.50;;
52918;SDS011;38793;52.690;6.812;2023-03-21T06:21:35;62.80;;;33.88;;
52918;SDS011;38793;52.690;6.812;2023-03-21T06:24:01;60.17;;;36.28;;
52918;SDS011;38793;52.690;6.812;2023-03-21T06:26:27;64.13;;;35.70;;
52918;SDS011;38793;52.690;6.812;2023-03-21T06:28:53;60.20;;;36.15;;
52918;SDS011;38793;52.690;6.812;2023-03-21T06:31:19;50.28;;;30.83;;
52918;SDS011;38793;52.690;6.812;2023-03-21T06:33:49;53.33;;;31.65;;
52918;SDS011;38793;52.690;6.812;2023-03-21T06:36:15;53.58;;;32.65;;
52918;SDS011;38793;52.690;6.812;2023-03-21T06:38:41;47.95;;;29.58;;
52918;SDS011;38793;52.690;6.812;2023-03-21T06:41:07;47.23;;;28.80;;
52918;SDS011;38793;52.690;6.812;2023-03-21T06:43:34;50.78;;;30.60;;
52918;SDS011;38793;52.690;6.812;2023-03-21T06:45:59;50.65;;;31.02;;
52918;SDS011;38793;52.690;6.812;2023-03-21T06:48:26;52.00;;;30.38;;
52918;SDS011;38793;52.690;6.812;2023-03-21T06:53:18;39.42;;;24.50;;
52918;SDS011;38793;52.690;6.812;2023-03-21T06:55:48;47.88;;;26.65;;
52918;SDS011;38793;52.690;6.812;2023-03-21T06:58:14;39.25;;;25.80;;
52918;SDS011;38793;52.690;6.812;2023-03-21T07:00:40;39.10;;;26.13;;
52918;SDS011;38793;52.690;6.812;2023-03-21T07:03:06;41.97;;;27.23;;
52918;SDS011;38793;52.690;6.812;2023-03-21T07:05:33;40.27;;;24.73;;
52918;SDS011;38793;52.690;6.812;2023-03-21T07:07:59;44.08;;;27.23;;
52918;SDS011;38793;52.690;6.812;2023-03-21T07:10:25;40.70;;;23.90;;
52918;SDS011;38793;52.690;6.812;2023-03-21T07:12:50;38.13;;;23.75;;
52918;SDS011;38793;52.690;6.812;2023-03-21T07:15:16;35.73;;;24.03;;
52918;SDS011;38793;52.690;6.812;2023-03-21T07:17:42;36.13;;;24.63;;
52918;SDS011;38793;52.690;6.812;2023-03-21T07:20:07;36.33;;;25.33;;
52918;SDS011;38793;52.690;6.812;2023-03-21T07:22:36;38.83;;;24.67;;
52918;SDS011;38793;52.690;6.812;2023-03-21T07:25:02;39.33;;;23.67;;
52918;SDS011;38793;52.690;6.812;2023-03-21T07:27:28;33.60;;;22.13;;
52918;SDS011;38793;52.690;6.812;2023-03-21T07:29:54;36.55;;;22.70;;
52918;SDS011;38793;52.690;6.812;2023-03-21T07:32:19;31.98;;;21.98;;
52918;SDS011;38793;52.690;6.812;2023-03-21T07:34:45;33.53;;;20.88;;
52918;SDS011;38793;52.690;6.812;2023-03-21T07:37:11;33.87;;;21.93;;
52918;SDS011;38793;52.690;6.812;2023-03-21T07:39:36;35.07;;;21.53;;
52918;SDS011;38793;52.690;6.812;2023-03-21T07:42:02;35.88;;;22.50;;
52918;SDS011;38793;52.690;6.812;2023-03-21T07:44:28;34.05;;;20.80;;
52918;SDS011;38793;52.690;6.812;2023-03-21T07:46:54;30.70;;;21.35;;
52918;SDS011;38793;52.690;6.812;2023-03-21T07:49:20;36.03;;;20.52;;
52918;SDS011;38793;52.690;6.812;2023-03-21T07:51:46;34.60;;;22.20;;
52918;SDS011;38793;52.690;6.812;2023-03-21T07:54:11;40.70;;;22.43;;
52918;SDS011;38793;52.690;6.812;2023-03-21T07:56:37;30.03;;;19.00;;
52918;SDS011;38793;52.690;6.812;2023-03-21T07:59:03;35.80;;;19.77;;
52918;SDS011;38793;52.690;6.812;2023-03-21T08:01:29;38.38;;;22.13;;
52918;SDS011;38793;52.690;6.812;2023-03-21T08:03:55;32.25;;;21.10;;
52918;SDS011;38793;52.690;6.812;2023-03-21T08:06:21;32.80;;;19.50;;
52918;SDS011;38793;52.690;6.812;2023-03-21T08:08:47;36.28;;;20.60;;
52918;SDS011;38793;52.690;6.812;2023-03-21T08:11:12;33.78;;;19.95;;
52918;SDS011;38793;52.690;6.812;2023-03-21T08:13:38;36.75;;;20.70;;
52918;SDS011;38793;52.690;6.812;2023-03-21T08:18:31;33.55;;;20.65;;
52918;SDS011;38793;52.690;6.812;2023-03-21T08:20:56;30.50;;;19.23;;
52918;SDS011;38793;52.690;6.812;2023-03-21T08:23:23;28.45;;;19.25;;
52918;SDS011;38793;52.690;6.812;2023-03-21T08:25:50;38.00;;;19.33;;
52918;SDS011;38793;52.690;6.812;2023-03-21T08:28:17;40.08;;;21.23;;
52918;SDS011;38793;52.690;6.812;2023-03-21T08:30:42;35.47;;;20.40;;
52918;SDS011;38793;52.690;6.812;2023-03-21T08:33:08;35.23;;;19.73;;
52918;SDS011;38793;52.690;6.812;2023-03-21T08:35:34;36.40;;;19.88;;
52918;SDS011;38793;52.690;6.812;2023-03-21T08:38:03;32.08;;;19.40;;
52918;SDS011;38793;52.690;6.812;2023-03-21T08:40:29;30.50;;;18.13;;
52918;SDS011;38793;52.690;6.812;2023-03-21T08:42:54;27.88;;;18.67;;
52918;SDS011;38793;52.690;6.812;2023-03-21T08:45:20;31.48;;;18.73;;
52918;SDS011;38793;52.690;6.812;2023-03-21T08:50:16;35.05;;;18.08;;
52918;SDS011;38793;52.690;6.812;2023-03-21T08:52:44;30.45;;;18.00;;
52918;SDS011;38793;52.690;6.812;2023-03-21T08:55:10;31.67;;;18.05;;
52918;SDS011;38793;52.690;6.812;2023-03-21T08:57:36;31.90;;;18.23;;
52918;SDS011;38793;52.690;6.812;2023-03-21T09:00:03;34.35;;;17.00;;
52918;SDS011;38793;52.690;6.812;2023-03-21T09:02:36;30.35;;;17.25;;
52918;SDS011;38793;52.690;6.812;2023-03-21T09:05:02;36.92;;;18.85;;
52918;SDS011;38793;52.690;6.812;2023-03-21T09:07:30;34.85;;;17.23;;
52918;SDS011;38793;52.690;6.812;2023-03-21T09:09:58;28.45;;;16.60;;
52918;SDS011;38793;52.690;6.812;2023-03-21T09:12:24;32.83;;;16.60;;
52918;SDS011;38793;52.690;6.812;2023-03-21T09:14:50;27.55;;;15.68;;
52918;SDS011;38793;52.690;6.812;2023-03-21T09:17:17;26.35;;;16.35;;
52918;SDS011;38793;52.690;6.812;2023-03-21T09:19:43;30.30;;;16.75;;
52918;SDS011;38793;52.690;6.812;2023-03-21T09:22:10;31.40;;;16.33;;
52918;SDS011;38793;52.690;6.812;2023-03-21T09:24:39;35.58;;;17.00;;
52918;SDS011;38793;52.690;6.812;2023-03-21T09:27:09;34.42;;;15.75;;
52918;SDS011;38793;52.690;6.812;2023-03-21T09:29:35;28.20;;;15.35;;
52918;SDS011;38793;52.690;6.812;2023-03-21T09:32:02;26.55;;;15.35;;
52918;SDS011;38793;52.690;6.812;2023-03-21T09:34:28;31.50;;;16.52;;
52918;SDS011;38793;52.690;6.812;2023-03-21T09:36:54;30.45;;;15.98;;
52918;SDS011;38793;52.690;6.812;2023-03-21T09:39:21;25.20;;;15.93;;
52918;SDS011;38793;52.690;6.812;2023-03-21T09:42:05;23.98;;;15.98;;
52918;SDS011;38793;52.690;6.812;2023-03-21T09:47:40;28.92;;;16.50;;
52918;SDS011;38793;52.690;6.812;2023-03-21T09:50:18;28.63;;;15.05;;
52918;SDS011;38793;52.690;6.812;2023-03-21T09:55:47;30.23;;;16.52;;
52918;SDS011;38793;52.690;6.812;2023-03-21T09:58:27;24.98;;;15.98;;
52918;SDS011;38793;52.690;6.812;2023-03-21T10:01:18;31.25;;;16.13;;
52918;SDS011;38793;52.690;6.812;2023-03-21T10:03:54;33.35;;;18.35;;
52918;SDS011;38793;52.690;6.812;2023-03-21T10:06:21;32.88;;;18.08;;
52918;SDS011;38793;52.690;6.812;2023-03-21T10:08:54;32.70;;;15.98;;
52918;SDS011;38793;52.690;6.812;2023-03-21T10:11:27;29.27;;;16.55;;
52918;SDS011;38793;52.690;6.812;2023-03-21T10:14:04;29.10;;;17.00;;
52918;SDS011;38793;52.690;6.812;2023-03-21T10:16:39;26.20;;;16.65;;
52918;SDS011;38793;52.690;6.812;2023-03-21T10:19:11;27.15;;;17.45;;
52918;SDS011;38793;52.690;6.812;2023-03-21T10:21:40;29.08;;;17.33;;
52918;SDS011;38793;52.690;6.812;2023-03-21T10:24:09;24.35;;;16.45;;
52918;SDS011;38793;52.690;6.812;2023-03-21T10:26:41;29.67;;;17.02;;
52918;SDS011;38793;52.690;6.812;2023-03-21T10:29:09;27.70;;;16.45;;
52918;SDS011;38793;52.690;6.812;2023-03-21T10:31:38;28.65;;;16.67;;
52918;SDS011;38793;52.690;6.812;2023-03-21T10:34:12;24.85;;;16.45;;
52918;SDS011;38793;52.690;6.812;2023-03-21T10:36:41;27.90;;;17.58;;
52918;SDS011;38793;52.690;6.812;2023-03-21T10:39:13;29.13;;;17.77;;
52918;SDS011;38793;52.690;6.812;2023-03-21T10:41:51;25.67;;;17.05;;
52918;SDS011;38793;52.690;6.812;2023-03-21T10:44:17;24.60;;;16.75;;
52918;SDS011;38793;52.690;6.812;2023-03-21T10:46:51;26.75;;;16.98;;
52918;SDS011;38793;52.690;6.812;2023-03-21T10:49:19;30.58;;;15.70;;
52918;SDS011;38793;52.690;6.812;2023-03-21T10:51:51;26.33;;;15.77;;
52918;SDS011;38793;52.690;6.812;2023-03-21T10:54:21;28.33;;;17.30;;
52918;SDS011;38793;52.690;6.812;2023-03-21T10:59:25;20.95;;;13.60;;
52918;SDS011;38793;52.690;6.812;2023-03-21T11:01:59;18.00;;;12.02;;
52918;SDS011;38793;52.690;6.812;2023-03-21T11:04:28;16.15;;;11.73;;
52918;SDS011;38793;52.690;6.812;2023-03-21T11:06:57;22.85;;;10.70;;
52918;SDS011;38793;52.690;6.812;2023-03-21T11:09:52;23.83;;;11.80;;
52918;SDS011;38793;52.690;6.812;2023-03-21T11:12:34;20.00;;;10.77;;
52918;SDS011;38793;52.690;6.812;2023-03-21T11:17:50;15.95;;;9.98;;
52918;SDS011;38793;52.690;6.812;2023-03-21T11:20:16;17.17;;;9.77;;
52918;SDS011;38793;52.690;6.812;2023-03-21T11:22:43;13.10;;;9.20;;
52918;SDS011;38793;52.690;6.812;2023-03-21T11:25:18;16.27;;;9.50;;
52918;SDS011;38793;52.690;6.812;2023-03-21T11:27:49;17.20;;;9.25;;
52918;SDS011;38793;52.690;6.812;2023-03-21T11:30:23;12.73;;;9.07;;
52918;SDS011;38793;52.690;6.812;2023-03-21T11:32:54;18.45;;;8.77;;
52918;SDS011;38793;52.690;6.812;2023-03-21T11:35:22;14.77;;;8.20;;
52918;SDS011;38793;52.690;6.812;2023-03-21T11:37:53;14.82;;;8.23;;
52918;SDS011;38793;52.690;6.812;2023-03-21T11:42:56;19.25;;;9.30;;
52918;SDS011;38793;52.690;6.812;2023-03-21T11:47:57;12.02;;;8.90;;
52918;SDS011;38793;52.690;6.812;2023-03-21T11:53:16;11.23;;;7.57;;
52918;SDS011;38793;52.690;6.812;2023-03-21T11:58:59;14.68;;;8.02;;
52918;SDS011;38793;52.690;6.812;2023-03-21T12:04:56;18.40;;;9.13;;
52918;SDS011;38793;52.690;6.812;2023-03-21T12:10:42;18.25;;;7.95;;
52918;SDS011;38793;52.690;6.812;2023-03-21T12:21:19;15.38;;;7.68;;
52918;SDS011;38793;52.690;6.812;2023-03-21T12:24:03;15.07;;;7.82;;
52918;SDS011;38793;52.690;6.812;2023-03-21T12:26:31;12.90;;;7.75;;
52918;SDS011;38793;52.690;6.812;2023-03-21T12:29:25;13.80;;;7.35;;
52918;SDS011;38793;52.690;6.812;2023-03-21T12:32:19;13.88;;;7.25;;
52918;SDS011;38793;52.690;6.812;2023-03-21T12:37:56;12.93;;;6.20;;
52918;SDS011;38793;52.690;6.812;2023-03-21T12:40:53;13.45;;;6.45;;
52918;SDS011;38793;52.690;6.812;2023-03-21T12:52:25;12.65;;;7.50;;
52918;SDS011;38793;52.690;6.812;2023-03-21T12:54:54;12.43;;;6.43;;
52918;SDS011;38793;52.690;6.812;2023-03-21T12:57:34;13.95;;;7.10;;
52918;SDS011;38793;52.690;6.812;2023-03-21T13:00:15;10.65;;;6.30;;
52918;SDS011;38793;52.690;6.812;2023-03-21T13:02:59;16.15;;;7.68;;
52918;SDS011;38793;52.690;6.812;2023-03-21T13:05:38;13.00;;;7.63;;
52918;SDS011;38793;52.690;6.812;2023-03-21T13:08:14;14.10;;;7.38;;
52918;SDS011;38793;52.690;6.812;2023-03-21T13:10:43;15.77;;;8.05;;
52918;SDS011;38793;52.690;6.812;2023-03-21T13:23:37;16.20;;;8.00;;
52918;SDS011;38793;52.690;6.812;2023-03-21T13:28:33;17.23;;;8.50;;
52918;SDS011;38793;52.690;6.812;2023-03-21T13:34:02;14.20;;;7.35;;
52918;SDS011;38793;52.690;6.812;2023-03-21T13:36:32;13.27;;;7.38;;
52918;SDS011;38793;52.690;6.812;2023-03-21T13:39:03;15.40;;;7.30;;
52918;SDS011;38793;52.690;6.812;2023-03-21T13:41:37;12.45;;;8.10;;
52918;SDS011;38793;52.690;6.812;2023-03-21T13:56:28;13.13;;;6.37;;
52918;SDS011;38793;52.690;6.812;2023-03-21T13:58:58;13.55;;;7.32;;
52918;SDS011;38793;52.690;6.812;2023-03-21T14:01:35;11.90;;;7.80;;
52918;SDS011;38793;52.690;6.812;2023-03-21T14:04:12;10.80;;;6.45;;
52918;SDS011;38793;52.690;6.812;2023-03-21T14:12:00;11.52;;;7.32;;
52918;SDS011;38793;52.690;6.812;2023-03-21T14:14:32;15.18;;;6.50;;
52918;SDS011;38793;52.690;6.812;2023-03-21T14:17:09;14.20;;;6.88;;
52918;SDS011;38793;52.690;6.812;2023-03-21T14:19:36;9.93;;;5.97;;
52918;SDS011;38793;52.690;6.812;2023-03-21T14:22:02;12.10;;;6.40;;
52918;SDS011;38793;52.690;6.812;2023-03-21T14:24:34;16.65;;;7.18;;
52918;SDS011;38793;52.690;6.812;2023-03-21T14:26:59;10.77;;;6.33;;
52918;SDS011;38793;52.690;6.812;2023-03-21T14:29:29;13.73;;;6.53;;
52918;SDS011;38793;52.690;6.812;2023-03-21T14:31:57;10.30;;;6.25;;
52918;SDS011;38793;52.690;6.812;2023-03-21T14:34:25;12.43;;;6.30;;
52918;SDS011;38793;52.690;6.812;2023-03-21T14:36:56;12.20;;;6.90;;
52918;SDS011;38793;52.690;6.812;2023-03-21T14:39:25;12.18;;;6.30;;
52918;SDS011;38793;52.690;6.812;2023-03-21T14:41:56;11.07;;;8.07;;
52918;SDS011;38793;52.690;6.812;2023-03-21T14:47:05;10.77;;;5.15;;
52918;SDS011;38793;52.690;6.812;2023-03-21T14:49:36;16.00;;;6.38;;
52918;SDS011;38793;52.690;6.812;2023-03-21T14:52:23;10.90;;;5.18;;
52918;SDS011;38793;52.690;6.812;2023-03-21T14:54:49;15.85;;;6.18;;
52918;SDS011;38793;52.690;6.812;2023-03-21T14:57:21;9.45;;;5.00;;
52918;SDS011;38793;52.690;6.812;2023-03-21T14:59:51;12.88;;;4.57;;
52918;SDS011;38793;52.690;6.812;2023-03-21T15:04:49;14.82;;;7.07;;
52918;SDS011;38793;52.690;6.812;2023-03-21T15:07:27;8.95;;;5.18;;
52918;SDS011;38793;52.690;6.812;2023-03-21T15:09:56;13.45;;;5.80;;
52918;SDS011;38793;52.690;6.812;2023-03-21T15:12:24;16.95;;;7.07;;
52918;SDS011;38793;52.690;6.812;2023-03-21T15:14:50;10.40;;;5.85;;
52918;SDS011;38793;52.690;6.812;2023-03-21T15:17:17;13.48;;;6.20;;
52918;SDS011;38793;52.690;6.812;2023-03-21T15:19:43;8.07;;;5.53;;
52918;SDS011;38793;52.690;6.812;2023-03-21T15:22:14;7.53;;;5.82;;
52918;SDS011;38793;52.690;6.812;2023-03-21T15:25:00;8.80;;;5.75;;
52918;SDS011;38793;52.690;6.812;2023-03-21T15:27:31;12.32;;;6.32;;
52918;SDS011;38793;52.690;6.812;2023-03-21T15:30:01;13.23;;;6.22;;
52918;SDS011;38793;52.690;6.812;2023-03-21T15:32:27;11.52;;;5.53;;
52918;SDS011;38793;52.690;6.812;2023-03-21T15:34:53;16.95;;;5.85;;
52918;SDS011;38793;52.690;6.812;2023-03-21T15:37:31;10.88;;;5.18;;
52918;SDS011;38793;52.690;6.812;2023-03-21T15:42:46;7.28;;;5.30;;
52918;SDS011;38793;52.690;6.812;2023-03-21T15:50:23;7.90;;;6.50;;
52918;SDS011;38793;52.690;6.812;2023-03-21T15:53:06;9.32;;;5.97;;
52918;SDS011;38793;52.690;6.812;2023-03-21T15:55:51;13.95;;;6.32;;
52918;SDS011;38793;52.690;6.812;2023-03-21T15:58:21;12.88;;;7.20;;
52918;SDS011;38793;52.690;6.812;2023-03-21T16:00:50;10.23;;;6.22;;
52918;SDS011;38793;52.690;6.812;2023-03-21T16:03:20;11.60;;;6.18;;
52918;SDS011;38793;52.690;6.812;2023-03-21T16:11:25;11.07;;;6.07;;
52918;SDS011;38793;52.690;6.812;2023-03-21T16:13:52;12.57;;;6.32;;
52918;SDS011;38793;52.690;6.812;2023-03-21T16:16:26;15.90;;;7.32;;
52918;SDS011;38793;52.690;6.812;2023-03-21T16:18:53;13.15;;;6.88;;
52918;SDS011;38793;52.690;6.812;2023-03-21T16:21:21;7.55;;;5.55;;
52918;SDS011;38793;52.690;6.812;2023-03-21T16:23:48;13.38;;;6.13;;
52918;SDS011;38793;52.690;6.812;2023-03-21T16:28:42;15.30;;;5.93;;
52918;SDS011;38793;52.690;6.812;2023-03-21T16:31:11;15.63;;;6.95;;
52918;SDS011;38793;52.690;6.812;2023-03-21T16:33:40;14.00;;;6.32;;
52918;SDS011;38793;52.690;6.812;2023-03-21T16:36:08;14.45;;;6.22;;
52918;SDS011;38793;52.690;6.812;2023-03-21T16:38:41;16.10;;;6.35;;
52918;SDS011;38793;52.690;6.812;2023-03-21T16:41:08;12.10;;;6.57;;
52918;SDS011;38793;52.690;6.812;2023-03-21T16:43:35;10.05;;;6.43;;
52918;SDS011;38793;52.690;6.812;2023-03-21T16:46:08;8.70;;;5.78;;
52918;SDS011;38793;52.690;6.812;2023-03-21T16:48:48;10.48;;;6.20;;
52918;SDS011;38793;52.690;6.812;2023-03-21T16:51:16;18.23;;;6.47;;
52918;SDS011;38793;52.690;6.812;2023-03-21T16:53:45;10.88;;;6.22;;
52918;SDS011;38793;52.690;6.812;2023-03-21T16:56:19;10.25;;;6.38;;
52918;SDS011;38793;52.690;6.812;2023-03-21T16:58:47;11.07;;;6.68;;
52918;SDS011;38793;52.690;6.812;2023-03-21T17:01:14;14.30;;;7.40;;
52918;SDS011;38793;52.690;6.812;2023-03-21T17:03:43;12.73;;;7.00;;
52918;SDS011;38793;52.690;6.812;2023-03-21T17:06:17;12.00;;;7.82;;
52918;SDS011;38793;52.690;6.812;2023-03-21T17:08:44;11.13;;;8.07;;